Time;durP1;ratioP1;P1;durP2;ratioP2;P2;SDS_P1;SDS_P2;PMS_P1;PMS_P2;Temp;Humidity;BMP_temperature;BMP_pressure;BME280_temperature;BME280_humidity;BME280_pressure;Samples;Min_cycle;Max_cycle;Signal;HPM_P1;HPM_P2
2022/05/26 00:01:28;;;;;;;33.00;10.43;;;;;;;13.19;100.00;101407.72;4866514;29;20048;-78
2022/05/26 00:03:56;;;;;;;21.08;9.70;;;;;;;13.18;100.00;101401.53;4873920;29;20064;-77
2022/05/26 00:06:25;;;;;;;27.90;10.73;;;;;;;13.18;100.00;101406.84;4870287;29;20045;-78
2022/05/26 00:08:53;;;;;;;32.30;10.85;;;;;;;13.19;100.00;101413.88;4872652;29;20415;-78
2022/05/26 00:11:32;;;;;;;27.88;10.55;;;;;;;13.20;100.00;101406.84;4828300;29;24953;-78
2022/05/26 00:14:07;;;;;;;28.00;12.05;;;;;;;13.19;100.00;101408.59;4857089;29;20530;-78
2022/05/26 00:16:38;;;;;;;24.63;10.30;;;;;;;13.19;100.00;101424.47;4869279;29;20514;-78
2022/05/26 00:19:07;;;;;;;30.42;9.95;;;;;;;13.19;100.00;101413.00;4889074;29;20048;-78
2022/05/26 00:21:35;;;;;;;35.20;10.02;;;;;;;13.19;100.00;101413.88;4855247;29;20165;-78
2022/05/26 00:24:04;;;;;;;26.83;9.57;;;;;;;13.20;100.00;101417.44;4840572;29;20076;-78
2022/05/26 00:26:33;;;;;;;23.55;9.27;;;;;;;13.18;100.00;101398.91;4848396;29;20068;-78
2022/05/26 00:29:02;;;;;;;28.70;9.60;;;;;;;13.17;100.00;101407.72;4874320;29;20053;-78
2022/05/26 00:31:30;;;;;;;25.20;9.20;;;;;;;13.17;100.00;101410.34;4851351;29;20255;-78
2022/05/26 00:33:59;;;;;;;33.05;9.98;;;;;;;13.17;100.00;101412.13;4853524;29;20053;-78
2022/05/26 00:36:43;;;;;;;25.77;10.23;;;;;;;13.15;100.00;101401.53;4822865;29;20245;-78
2022/05/26 00:39:22;;;;;;;30.05;10.27;;;;;;;13.15;100.00;101411.25;4869340;29;20056;-78
2022/05/26 00:41:56;;;;;;;30.05;9.60;;;;;;;13.12;100.00;101409.47;4874861;29;20060;-78
2022/05/26 00:44:25;;;;;;;33.20;10.85;;;;;;;13.11;100.00;101405.06;4840080;29;20275;-78
2022/05/26 00:46:59;;;;;;;26.25;9.30;;;;;;;13.09;100.00;101409.47;4871013;29;20045;-78
2022/05/26 00:49:34;;;;;;;29.25;9.82;;;;;;;13.06;100.00;101410.34;4842959;29;20150;-78
2022/05/26 00:52:03;;;;;;;31.83;9.57;;;;;;;13.07;100.00;101412.09;4838416;29;20529;-78
2022/05/26 00:54:33;;;;;;;28.77;9.77;;;;;;;13.04;100.00;101412.13;4853856;29;20272;-78
2022/05/26 00:57:15;;;;;;;33.50;10.27;;;;;;;13.05;100.00;101423.56;4855528;29;20063;-78
2022/05/26 00:59:50;;;;;;;38.80;10.25;;;;;;;13.02;100.00;101427.09;4843575;29;20053;-77
2022/05/26 01:02:26;;;;;;;21.63;8.95;;;;;;;13.03;100.00;101428.84;4854064;29;20065;-77
2022/05/26 01:04:58;;;;;;;23.05;9.90;;;;;;;13.01;100.00;101432.38;4854619;29;20053;-77
2022/05/26 01:07:31;;;;;;;25.55;9.93;;;;;;;13.00;100.00;101430.59;4843604;29;20073;-77
2022/05/26 01:10:00;;;;;;;26.52;9.20;;;;;;;12.99;100.00;101428.88;4879086;29;20064;-77
2022/05/26 01:12:28;;;;;;;30.50;10.18;;;;;;;12.98;100.00;101435.00;4839847;29;20240;-78
2022/05/26 01:15:12;;;;;;;29.58;9.50;;;;;;;12.96;100.00;101429.72;4832746;29;20049;-78
2022/05/26 01:17:53;;;;;;;26.65;9.13;;;;;;;12.96;100.00;101436.78;4871016;29;20545;-78
2022/05/26 01:20:32;;;;;;;33.13;10.23;;;;;;;12.94;100.00;101441.19;4864312;29;20049;-78
2022/05/26 01:23:39;;;;;;;36.78;9.82;;;;;;;12.93;100.00;101442.03;4869641;29;20380;-78
2022/05/26 01:26:28;;;;;;;30.25;8.82;;;;;;;12.93;100.00;101436.75;4869837;29;20055;-78
2022/05/26 01:29:45;;;;;;;23.98;8.65;;;;;;;12.93;100.00;101437.66;4870159;29;20529;-77
2022/05/26 01:32:40;;;;;;;36.10;9.40;;;;;;;12.91;100.00;101439.44;4859235;29;20049;-78
2022/05/26 01:35:20;;;;;;;27.13;9.43;;;;;;;12.94;100.00;101447.34;4854497;29;20065;-78
2022/05/26 01:38:03;;;;;;;32.22;10.75;;;;;;;12.94;100.00;101455.28;4845381;29;20432;-78
2022/05/26 01:40:56;;;;;;;36.15;9.52;;;;;;;12.96;100.00;101455.28;4866329;29;20156;-78
2022/05/26 01:43:54;;;;;;;33.35;9.25;;;;;;;12.97;100.00;101465.88;4857242;29;20527;-78
2022/05/26 01:46:32;;;;;;;28.00;8.20;;;;;;;12.97;100.00;101465.00;4861542;29;20503;-78
2022/05/26 01:49:19;;;;;;;25.70;8.73;;;;;;;12.99;100.00;101468.53;4855663;29;20064;-77
2022/05/26 01:52:12;;;;;;;33.85;8.52;;;;;;;12.98;100.00;101472.06;4853178;29;20053;-79
2022/05/26 01:55:19;;;;;;;26.98;7.50;;;;;;;12.97;100.00;101476.47;4878148;29;20045;-78
2022/05/26 01:58:03;;;;;;;33.55;7.22;;;;;;;12.98;100.00;101474.69;4869462;29;20067;-78
2022/05/26 02:00:32;;;;;;;36.20;9.07;;;;;;;12.98;100.00;101478.22;4836482;29;20076;-77
2022/05/26 02:03:04;;;;;;;27.52;7.03;;;;;;;13.00;100.00;101480.88;4824655;29;20056;-79
2022/05/26 02:05:44;;;;;;;24.70;7.18;;;;;;;13.00;100.00;101471.16;4846422;29;20284;-78
2022/05/26 02:08:52;;;;;;;23.17;7.28;;;;;;;13.01;100.00;101478.25;4845805;29;20129;-78
2022/05/26 02:11:24;;;;;;;20.33;5.88;;;;;;;13.00;100.00;101481.75;4863011;29;20487;-80
2022/05/26 02:14:02;;;;;;;29.67;6.32;;;;;;;13.01;100.00;101472.06;4874710;29;20056;-78
2022/05/26 02:16:47;;;;;;;21.45;6.25;;;;;;;13.02;100.00;101474.72;4853865;29;20053;-77
2022/05/26 02:19:19;;;;;;;29.48;6.72;;;;;;;13.03;100.00;101480.91;4859734;29;20403;-78
2022/05/26 02:22:15;;;;;;;19.60;5.80;;;;;;;13.02;100.00;101473.81;4858633;29;20504;-79
2022/05/26 02:25:02;;;;;;;22.10;6.03;;;;;;;13.00;100.00;101481.75;4844834;29;20810;-78
2022/05/26 02:27:31;;;;;;;23.38;6.15;;;;;;;13.00;100.00;101479.09;4870735;29;20442;-77
2022/05/26 02:30:01;;;;;;;26.13;6.55;;;;;;;12.99;100.00;101493.22;4858213;29;20053;-77
2022/05/26 02:32:35;;;;;;;23.20;7.33;;;;;;;12.96;100.00;101493.22;4859334;29;20743;-78
2022/05/26 02:35:17;;;;;;;35.55;6.18;;;;;;;12.95;100.00;101487.91;4858098;29;20057;-78
2022/05/26 02:37:49;;;;;;;30.77;7.32;;;;;;;12.93;100.00;101487.94;4867347;29;20053;-77
2022/05/26 02:40:17;;;;;;;26.60;6.95;;;;;;;12.94;100.00;101499.38;4857197;29;20491;-78
2022/05/26 02:42:51;;;;;;;25.83;7.38;;;;;;;12.90;100.00;101487.91;4856569;29;20071;-79
2022/05/26 02:45:29;;;;;;;27.02;6.65;;;;;;;12.88;100.00;101498.47;4875079;29;20049;-78
2022/05/26 02:48:43;;;;;;;27.58;7.38;;;;;;;12.85;100.00;101497.56;4859002;29;20169;-79
2022/05/26 02:51:20;;;;;;;29.08;7.13;;;;;;;12.82;100.00;101498.44;4879386;29;20108;-78
2022/05/26 02:54:17;;;;;;;30.95;8.85;;;;;;;12.79;100.00;101506.34;4870043;29;20048;-78
2022/05/26 02:57:04;;;;;;;30.52;7.22;;;;;;;12.76;100.00;101510.75;4854439;29;20053;-78
2022/05/26 02:59:49;;;;;;;33.05;7.68;;;;;;;12.76;100.00;101508.09;4868888;29;20065;-77
2022/05/26 03:02:24;;;;;;;26.33;6.75;;;;;;;12.72;100.00;101512.53;4871232;29;20053;-79
2022/05/26 03:05:04;;;;;;;33.60;8.43;;;;;;;12.70;100.00;101514.25;4858259;29;20068;-78
2022/05/26 03:07:35;;;;;;;29.23;6.80;;;;;;;12.66;100.00;101517.75;4859765;29;20052;-78
2022/05/26 03:10:06;;;;;;;32.78;7.32;;;;;;;12.64;100.00;101515.09;4857302;29;20061;-78
2022/05/26 03:12:35;;;;;;;27.13;6.40;;;;;;;12.63;100.00;101525.69;4850292;29;20525;-78
2022/05/26 03:15:08;;;;;;;29.48;6.13;;;;;;;12.61;100.00;101524.81;4885585;29;20545;-77
2022/05/26 03:17:36;;;;;;;21.63;7.03;;;;;;;12.59;100.00;101526.53;4854437;29;20072;-77
2022/05/26 03:20:05;;;;;;;24.33;5.65;;;;;;;12.57;100.00;101526.53;4849572;29;20256;-79
2022/05/26 03:22:33;;;;;;;27.80;6.13;;;;;;;12.55;100.00;101519.44;4823621;29;20415;-78
2022/05/26 03:25:02;;;;;;;26.02;6.07;;;;;;;12.54;100.00;101523.88;4863412;29;20280;-78
2022/05/26 03:27:31;;;;;;;23.58;5.93;;;;;;;12.53;100.00;101526.50;4850181;29;20064;-78
2022/05/26 03:30:00;;;;;;;25.20;6.07;;;;;;;12.52;100.00;101530.91;4869640;29;20260;-78
2022/05/26 03:32:28;;;;;;;30.98;7.15;;;;;;;12.52;100.00;101527.38;4874478;29;20052;-78
2022/05/26 03:43:28;;;;;;;22.13;5.22;;;;;;;12.54;100.00;101539.72;4854412;29;20052;-79
2022/05/26 03:46:00;;;;;;;25.85;5.68;;;;;;;12.54;100.00;101552.94;4871464;29;20064;-78
2022/05/26 03:48:29;;;;;;;25.50;5.40;;;;;;;12.54;100.00;101560.88;4863395;29;20049;-77
2022/05/26 03:50:58;;;;;;;21.90;5.95;;;;;;;12.53;100.00;101550.28;4843521;29;20084;-78
2022/05/26 03:53:27;;;;;;;18.45;5.30;;;;;;;12.53;100.00;101558.22;4843477;29;20049;-78
2022/05/26 03:55:55;;;;;;;23.00;5.97;;;;;;;12.52;100.00;101561.75;4839872;29;20072;-77
2022/05/26 03:58:23;;;;;;;19.83;4.88;;;;;;;12.52;100.00;101564.41;4858880;29;20056;-78
2022/05/26 04:00:52;;;;;;;20.42;5.50;;;;;;;12.52;100.00;101575.84;4852970;29;20064;-77
2022/05/26 04:03:21;;;;;;;19.42;5.70;;;;;;;12.52;100.00;101565.28;4873039;29;20041;-78
2022/05/26 04:05:49;;;;;;;23.48;5.75;;;;;;;12.54;100.00;101575.88;4828016;29;20068;-78
2022/05/26 04:08:17;;;;;;;16.60;4.80;;;;;;;12.53;100.00;101571.44;4871557;29;20045;-78
2022/05/26 04:10:46;;;;;;;21.40;4.28;;;;;;;12.53;100.00;101574.09;4852374;29;20048;-77
2022/05/26 04:13:14;;;;;;;20.00;4.35;;;;;;;12.51;100.00;101576.72;4844912;29;20503;-77
2022/05/26 04:15:43;;;;;;;16.70;4.97;;;;;;;12.52;100.00;101581.13;4848658;29;20072;-77
2022/05/26 04:18:12;;;;;;;19.60;4.30;;;;;;;12.52;100.00;101578.50;4839597;29;20049;-78
2022/05/26 04:20:41;;;;;;;21.00;5.53;;;;;;;12.53;100.00;101589.94;4845973;29;20410;-78
2022/05/26 04:23:09;;;;;;;14.13;3.47;;;;;;;12.51;100.00;101596.97;4862724;29;20366;-79
2022/05/26 04:25:37;;;;;;;10.30;3.60;;;;;;;12.52;100.00;101596.13;4857204;29;20507;-78
2022/05/26 04:28:06;;;;;;;18.23;4.00;;;;;;;12.55;100.00;101590.84;4826142;29;20053;-79
2022/05/26 04:30:35;;;;;;;20.15;3.63;;;;;;;12.56;100.00;101595.25;4818450;29;20045;-78
2022/05/26 04:33:03;;;;;;;12.35;3.70;;;;;;;12.56;100.00;101604.06;4848288;29;20166;-78
2022/05/26 04:35:37;;;;;;;18.90;3.92;;;;;;;12.56;100.00;101601.44;4853657;29;20061;-78
2022/05/26 04:38:06;;;;;;;13.65;3.40;;;;;;;12.57;100.00;101611.16;4845402;29;20161;-77
2022/05/26 04:40:34;;;;;;;18.15;4.25;;;;;;;12.56;100.00;101605.84;4881943;29;20049;-78
2022/05/26 04:43:03;;;;;;;12.25;4.00;;;;;;;12.55;100.00;101612.91;4855144;29;20295;-77
2022/05/26 04:45:33;;;;;;;11.52;3.10;;;;;;;12.57;100.00;101612.88;4846207;29;20056;-78
2022/05/26 04:48:01;;;;;;;11.93;2.83;;;;;;;12.62;100.00;101612.03;4867376;29;20176;-78
2022/05/26 04:50:30;;;;;;;11.05;3.05;;;;;;;12.67;100.00;101614.72;4854348;29;20064;-78
2022/05/26 04:52:58;;;;;;;11.85;2.60;;;;;;;12.72;100.00;101617.38;4841824;29;20341;-78
2022/05/26 04:55:31;;;;;;;10.88;2.88;;;;;;;12.75;100.00;101628.88;4842719;29;20049;-77
2022/05/26 04:58:00;;;;;;;12.65;3.00;;;;;;;13.01;100.00;101623.75;4869713;29;20172;-78
2022/05/26 05:00:28;;;;;;;12.07;2.47;;;;;;;13.17;100.00;101624.69;4854593;29;20050;-78
2022/05/26 05:02:57;;;;;;;14.50;2.75;;;;;;;13.48;100.00;101629.28;4868024;29;20045;-77
2022/05/26 05:05:25;;;;;;;8.77;2.55;;;;;;;14.20;100.00;101629.47;4872604;29;20065;-78
2022/05/26 05:07:55;;;;;;;9.68;2.45;;;;;;;14.95;100.00;101641.78;4885456;29;20519;-78
2022/05/26 05:10:23;;;;;;;10.95;2.53;;;;;;;15.52;100.00;101637.19;4861524;29;20045;-77
2022/05/26 05:12:56;;;;;;;9.13;1.90;;;;;;;16.10;100.00;101633.31;4838446;29;20538;-78
2022/05/26 05:15:34;;;;;;;10.60;2.78;;;;;;;16.53;100.00;101640.06;4857352;29;20053;-78
2022/05/26 05:18:03;;;;;;;7.78;1.92;;;;;;;16.64;100.00;101640.88;4871509;29;20123;-77
2022/05/26 05:20:33;;;;;;;10.55;2.50;;;;;;;16.71;100.00;101636.34;4883995;29;20053;-78
2022/05/26 05:23:07;;;;;;;7.53;2.20;;;;;;;16.79;100.00;101644.28;4861862;29;20079;-77
2022/05/26 05:25:39;;;;;;;7.97;2.00;;;;;;;17.31;100.00;101649.06;4844878;29;20065;-77
2022/05/26 05:28:21;;;;;;;8.13;2.10;;;;;;;17.89;100.00;101647.44;4852047;29;20045;-78
2022/05/26 05:31:21;;;;;;;8.23;2.25;;;;;;;18.18;100.00;101647.00;4840780;29;20060;-78
2022/05/26 05:33:55;;;;;;;11.57;2.22;;;;;;;18.68;100.00;101647.94;4855457;29;20068;-79
2022/05/26 05:36:29;;;;;;;10.00;1.80;;;;;;;18.82;100.00;101642.38;4867742;29;20068;-78
2022/05/26 05:38:59;;;;;;;8.52;2.10;;;;;;;18.91;100.00;101645.81;4850928;29;20519;-79
2022/05/26 05:41:28;;;;;;;;;;;;;;;18.41;89.66;101662.66;4844379;29;20061;-78
2022/05/26 05:43:57;;;;;;;7.70;1.80;;;;;;;17.90;100.00;101666.09;4869410;29;19954;-78
2022/05/26 05:46:33;;;;;;;7.22;1.98;;;;;;;17.31;100.00;101665.91;4872600;29;20430;-78
2022/05/26 05:49:05;;;;;;;9.63;2.67;;;;;;;16.81;100.00;101674.44;4859938;29;20056;-78
2022/05/26 05:51:35;;;;;;;11.23;2.15;;;;;;;16.40;100.00;101686.28;4841893;29;20056;-78
2022/05/26 05:54:04;;;;;;;8.18;1.85;;;;;;;16.03;100.00;101681.22;4871072;29;20274;-78
2022/05/26 05:56:32;;;;;;;6.22;2.28;;;;;;;15.75;100.00;101689.38;4837804;29;20045;-78
2022/05/26 05:59:01;;;;;;;10.45;2.58;;;;;;;15.51;100.00;101683.22;4849461;29;20038;-79
2022/05/26 06:01:29;;;;;;;10.13;2.53;;;;;;;15.31;100.00;101688.63;4837367;29;20056;-77
2022/05/26 06:03:58;;;;;;;15.15;2.38;;;;;;;15.40;100.00;101693.00;4854094;29;20737;-78
2022/05/26 06:06:26;;;;;;;6.28;2.30;;;;;;;15.53;100.00;101694.72;4848317;29;20052;-78
2022/05/26 06:08:55;;;;;;;10.63;2.63;;;;;;;15.70;100.00;101685.81;4867014;29;20052;-79
2022/05/26 06:11:23;;;;;;;7.70;1.95;;;;;;;15.91;100.00;101693.69;4873446;29;20507;-78
2022/05/26 06:13:51;;;;;;;10.45;2.92;;;;;;;16.28;100.00;101692.59;4840440;29;20056;-77
2022/05/26 06:16:20;;;;;;;10.73;2.20;;;;;;;16.71;100.00;101698.47;4863455;29;20041;-77
2022/05/26 06:18:50;;;;;;;7.45;2.03;;;;;;;16.88;100.00;101697.44;4827074;29;20057;-78
2022/05/26 06:21:18;;;;;;;9.40;1.67;;;;;;;17.02;100.00;101694.66;4854036;29;20049;-78
2022/05/26 06:23:48;;;;;;;6.72;2.13;;;;;;;17.01;100.00;101706.19;4835253;29;20060;-78
2022/05/26 06:26:16;;;;;;;6.22;2.28;;;;;;;17.01;100.00;101707.06;4835725;29;20061;-78
2022/05/26 06:31:31;;;;;;;9.70;1.63;;;;;;;16.99;100.00;101719.53;4872257;29;20533;-78
2022/05/26 06:39:35;;;;;;;8.63;2.00;;;;;;;16.11;100.00;101730.81;4865123;29;20419;-77
2022/05/26 06:42:06;;;;;;;8.48;1.58;;;;;;;15.81;100.00;101723.88;4850827;29;20732;-77
2022/05/26 06:44:44;;;;;;;5.65;1.45;;;;;;;15.52;100.00;101729.25;4853103;29;20038;-77
2022/05/26 06:47:20;;;;;;;7.32;1.73;;;;;;;15.37;100.00;101731.09;4883437;29;20419;-77
2022/05/26 06:49:49;;;;;;;5.75;2.05;;;;;;;15.34;100.00;101728.41;4852384;29;20057;-77
2022/05/26 06:52:23;;;;;;;8.43;1.88;;;;;;;15.35;100.00;101737.28;4847432;29;20061;-77
2022/05/26 06:54:51;;;;;;;10.20;2.00;;;;;;;15.46;100.00;101740.78;4863513;29;20067;-78
2022/05/26 06:57:20;;;;;;;8.15;1.95;;;;;;;15.47;100.00;101739.03;4854810;29;20044;-78
2022/05/26 06:59:48;;;;;;;8.10;2.10;;;;;;;15.47;100.00;101744.34;4859706;29;20048;-78
2022/05/26 07:02:17;;;;;;;6.13;1.85;;;;;;;15.52;100.00;101739.88;4882232;29;20061;-78
2022/05/26 07:04:45;;;;;;;5.78;1.77;;;;;;;15.59;100.00;101746.94;4856910;29;20048;-78
2022/05/26 07:07:15;;;;;;;10.07;1.95;;;;;;;15.47;100.00;101745.22;4870026;29;20435;-78
2022/05/26 07:09:44;;;;;;;7.85;2.03;;;;;;;15.44;100.00;101747.00;4844254;29;20056;-78
2022/05/26 07:12:13;;;;;;;4.93;1.42;;;;;;;15.46;100.00;101747.88;4857935;29;20049;-78
2022/05/26 07:14:42;;;;;;;5.97;1.50;;;;;;;15.45;100.00;101754.09;4853333;29;20045;-78
2022/05/26 07:17:10;;;;;;;5.22;1.77;;;;;;;15.31;100.00;101749.69;4821834;29;20045;-77
2022/05/26 07:19:39;;;;;;;8.48;1.95;;;;;;;15.25;100.00;101757.66;4828698;29;20050;-78
2022/05/26 07:22:08;;;;;;;6.38;1.77;;;;;;;15.23;100.00;101758.53;4844091;29;20283;-78
2022/05/26 07:24:38;;;;;;;6.20;1.38;;;;;;;15.17;100.00;101751.47;4873425;29;20048;-78
2022/05/26 07:27:07;;;;;;;9.80;1.70;;;;;;;15.14;100.00;101762.09;4857124;29;20067;-78
2022/05/26 07:29:37;;;;;;;5.50;2.05;;;;;;;15.07;100.00;101763.88;4867003;29;20045;-78
2022/05/26 07:32:05;;;;;;;7.43;1.75;;;;;;;15.05;100.00;101765.66;4864385;29;20049;-77
2022/05/26 07:34:34;;;;;;;13.70;1.95;;;;;;;15.08;100.00;101778.91;4828119;29;20034;-78
2022/05/26 07:42:38;;;;;;;8.02;2.17;;;;;;;15.12;100.00;101780.69;4874281;29;20045;-78
2022/05/26 07:45:08;;;;;;;5.97;1.60;;;;;;;15.19;100.00;101785.09;4846071;29;20168;-78
2022/05/26 07:47:37;;;;;;;7.65;1.80;;;;;;;15.26;100.00;101785.09;4857057;29;20373;-78
2022/05/26 07:50:08;;;;;;;7.18;1.60;;;;;;;15.36;100.00;101776.22;4856020;29;20049;-77
2022/05/26 07:52:37;;;;;;;5.70;1.38;;;;;;;15.49;100.00;101787.72;4869314;29;20049;-77
2022/05/26 07:55:06;;;;;;;6.63;1.67;;;;;;;15.64;100.00;101774.38;4871837;29;20431;-77
2022/05/26 07:57:34;;;;;;;8.27;2.10;;;;;;;15.77;100.00;101780.59;4873506;29;20377;-78
2022/05/26 08:00:03;;;;;;;5.75;1.42;;;;;;;15.87;100.00;101774.34;4866843;29;20271;-78
2022/05/26 08:02:52;;;;;;;7.88;1.52;;;;;;;15.90;100.00;101774.34;4854450;29;20337;-77
2022/05/26 08:05:21;;;;;;;6.25;1.75;;;;;;;16.04;100.00;101770.72;4840519;29;20057;-78
2022/05/26 08:07:49;;;;;;;6.35;1.58;;;;;;;16.10;100.00;101765.38;4850786;29;20072;-79
2022/05/26 08:10:18;;;;;;;4.43;1.80;;;;;;;16.16;100.00;101779.53;4855223;29;20053;-78
2022/05/26 08:12:47;;;;;;;5.43;1.38;;;;;;;16.25;100.00;101786.56;4841683;29;20515;-78
2022/05/26 08:15:16;;;;;;;8.88;1.20;;;;;;;16.30;100.00;101787.44;4861485;29;20080;-78
2022/05/26 08:17:45;;;;;;;2.92;1.27;;;;;;;16.34;100.00;101793.63;4856914;29;20045;-78
2022/05/26 08:20:14;;;;;;;6.97;1.55;;;;;;;16.30;100.00;101795.41;4830607;29;20056;-79
2022/05/26 08:22:42;;;;;;;2.97;1.60;;;;;;;16.28;100.00;101788.34;4833312;29;20053;-78
2022/05/26 08:25:11;;;;;;;5.57;1.30;;;;;;;16.26;100.00;101798.09;4853515;29;20461;-78
2022/05/26 08:27:39;;;;;;;6.00;1.80;;;;;;;16.22;99.94;101797.25;4827157;29;20280;-78
2022/05/26 08:30:08;;;;;;;6.40;1.70;;;;;;;16.17;98.31;101812.31;4841026;29;20411;-79
2022/05/26 08:32:39;;;;;;;4.32;1.40;;;;;;;16.16;99.30;101808.78;4828940;29;20049;-77
2022/05/26 08:35:09;;;;;;;6.50;1.42;;;;;;;16.20;98.08;101817.63;4865228;29;20515;-78
2022/05/26 08:37:37;;;;;;;6.20;1.45;;;;;;;16.26;98.76;101819.38;4843120;29;20153;-78
2022/05/26 08:40:08;;;;;;;5.30;1.30;;;;;;;16.40;99.03;101824.63;4862928;29;20064;-78
2022/05/26 08:42:37;;;;;;;5.78;1.70;;;;;;;16.48;97.56;101828.09;4875140;29;20056;-78
2022/05/26 08:45:15;;;;;;;5.28;1.50;;;;;;;16.55;96.80;101822.75;4849348;29;20168;-77
2022/05/26 08:47:46;;;;;;;7.07;1.23;;;;;;;16.57;94.48;101828.94;4847080;29;20068;-78
2022/05/26 08:50:28;;;;;;;2.92;1.13;;;;;;;16.54;94.13;101826.31;4860669;29;20057;-78
2022/05/26 08:52:58;;;;;;;6.40;1.45;;;;;;;16.73;96.48;101823.53;4852328;29;20045;-78
2022/05/26 08:55:42;;;;;;;8.02;1.42;;;;;;;16.77;93.54;101822.63;4873492;29;20242;-77
2022/05/26 08:58:17;;;;;;;5.10;1.90;;;;;;;16.59;92.47;101828.94;4853061;29;20276;-78
2022/05/26 09:00:48;;;;;;;8.80;2.08;;;;;;;16.54;92.42;101841.38;4854181;29;20053;-78
2022/05/26 09:03:17;;;;;;;6.57;1.10;;;;;;;16.53;91.62;101839.63;4837559;29;20060;-77
2022/05/26 09:05:51;;;;;;;5.90;1.27;;;;;;;16.56;91.35;101836.97;4846520;29;20053;-78
2022/05/26 09:14:06;;;;;;;5.22;1.50;;;;;;;16.49;93.57;101833.44;4857449;29;20048;-78
2022/05/26 09:16:42;;;;;;;6.30;1.52;;;;;;;16.43;92.53;101835.25;4874229;29;20396;-78
2022/05/26 09:19:15;;;;;;;5.13;1.20;;;;;;;16.43;94.03;101836.13;4860580;29;20044;-79
2022/05/26 09:21:46;;;;;;;4.75;1.73;;;;;;;16.52;93.96;101841.41;4865157;29;20048;-79
2022/05/26 09:24:29;;;;;;;3.58;1.10;;;;;;;16.59;92.99;101850.22;4857318;29;20045;-79
2022/05/26 09:26:59;;;;;;;9.60;1.55;;;;;;;16.74;91.43;101846.59;4883723;29;20260;-78
2022/05/26 09:29:30;;;;;;;5.88;1.42;;;;;;;16.95;90.77;101851.78;4847515;29;20037;-78
2022/05/26 09:32:01;;;;;;;5.30;1.42;;;;;;;17.11;89.85;101860.56;4869643;29;20049;-78
2022/05/26 09:35:12;;;;;;;5.30;1.73;;;;;;;17.21;87.44;101852.50;4842450;29;20530;-78
2022/05/26 09:37:44;;;;;;;3.05;0.95;;;;;;;17.13;85.39;101842.78;4833193;29;20049;-78
2022/05/26 09:40:21;;;;;;;6.53;1.88;;;;;;;17.06;86.03;101865.03;4844616;29;20060;-78
2022/05/26 09:42:58;;;;;;;7.35;1.48;;;;;;;17.03;85.13;101862.41;4866038;29;20478;-78
2022/05/26 09:45:56;;;;;;;5.88;1.50;;;;;;;16.93;81.59;101860.69;4859772;29;20056;-79
2022/05/26 09:48:34;;;;;;;4.43;1.23;;;;;;;16.82;85.43;101867.81;4872207;29;20041;-79
2022/05/26 09:51:25;;;;;;;5.85;1.48;;;;;;;16.64;83.12;101864.38;4859897;29;20157;-79
2022/05/26 09:53:55;;;;;;;4.65;1.10;;;;;;;16.55;86.09;101877.75;4863364;29;20060;-78
2022/05/26 09:56:31;;;;;;;3.00;1.30;;;;;;;16.51;84.77;101868.00;4827965;29;20049;-78
2022/05/26 09:59:23;;;;;;;6.38;1.65;;;;;;;16.52;85.51;101877.75;4849001;29;20040;-78
2022/05/26 10:02:04;;;;;;;2.47;1.23;;;;;;;16.51;85.78;101879.53;4863862;29;20049;-78
2022/05/26 10:04:59;;;;;;;7.45;1.40;;;;;;;16.45;86.53;101876.03;4873273;29;20061;-78
2022/05/26 10:07:50;;;;;;;9.23;1.38;;;;;;;16.51;87.57;101876.00;4862984;29;20179;-78
2022/05/26 10:10:26;;;;;;;4.10;1.42;;;;;;;16.75;87.31;101873.19;4864130;29;20276;-78
2022/05/26 10:13:26;;;;;;;4.32;1.85;;;;;;;17.04;86.82;101874.81;4856897;29;20049;-78
2022/05/26 10:16:26;;;;;;;5.90;1.85;;;;;;;17.28;84.68;101864.88;4863774;29;20044;-78
2022/05/26 10:19:24;;;;;;;3.38;1.00;;;;;;;17.46;81.42;101875.34;4858012;29;20048;-79
2022/05/26 10:22:24;;;;;;;4.45;1.38;;;;;;;17.55;83.57;101869.06;4849926;29;20049;-77
2022/05/26 10:25:23;;;;;;;2.45;1.20;;;;;;;17.52;81.18;101874.41;4862571;29;20045;-78
2022/05/26 10:28:10;;;;;;;4.68;1.05;;;;;;;17.48;79.62;101876.22;4839510;29;20506;-78
2022/05/26 10:30:57;;;;;;;3.70;1.00;;;;;;;17.40;82.32;101875.41;4862348;29;20053;-78
2022/05/26 10:33:32;;;;;;;4.40;1.25;;;;;;;17.37;82.79;101877.22;4874423;29;20053;-78
2022/05/26 10:36:23;;;;;;;7.22;1.58;;;;;;;17.56;83.24;101872.59;4863401;29;20412;-78
2022/05/26 10:38:57;;;;;;;2.85;1.17;;;;;;;17.60;81.60;101875.22;4856435;29;20049;-78
2022/05/26 10:41:45;;;;;;;6.32;1.60;;;;;;;17.56;79.41;101862.84;4873300;29;20087;-78
2022/05/26 10:44:19;;;;;;;5.35;1.40;;;;;;;17.64;82.81;101860.97;4829580;29;20053;-77
2022/05/26 10:47:11;;;;;;;6.40;1.55;;;;;;;17.78;82.26;101852.81;4854039;29;20053;-78
2022/05/26 10:50:24;;;;;;;4.38;1.38;;;;;;;18.09;81.85;101852.50;4864665;29;20050;-79
2022/05/26 10:53:06;;;;;;;3.97;1.20;;;;;;;18.26;81.00;101862.97;4826264;29;20056;-77
2022/05/26 10:55:49;;;;;;;5.72;1.50;;;;;;;18.06;78.92;101853.44;4854138;29;20065;-78
2022/05/26 10:58:31;;;;;;;5.03;1.30;;;;;;;17.89;78.44;101861.63;4844742;29;20049;-79
2022/05/26 11:01:21;;;;;;;4.75;1.10;;;;;;;17.71;78.85;101862.69;4848779;29;20076;-79
2022/05/26 11:03:55;;;;;;;3.30;1.38;;;;;;;17.72;81.48;101852.91;4838558;29;20061;-78
2022/05/26 11:06:28;;;;;;;2.97;1.45;;;;;;;17.88;81.87;101864.31;4852109;29;20045;-78
2022/05/26 11:09:07;;;;;;;3.92;1.08;;;;;;;17.88;81.50;101859.88;4857393;29;20244;-78
2022/05/26 11:11:44;;;;;;;4.57;1.20;;;;;;;17.69;76.98;101852.91;4861716;29;20054;-78
2022/05/26 11:17:46;;;;;;;7.53;1.30;;;;;;;17.47;79.98;101847.81;4871627;29;20311;-78
2022/05/26 11:20:24;;;;;;;2.92;0.85;;;;;;;17.42;81.45;101849.63;4852423;29;20371;-78
2022/05/26 11:23:03;;;;;;;3.78;1.13;;;;;;;17.39;81.55;101855.00;4868486;29;20049;-78
2022/05/26 11:25:38;;;;;;;2.53;1.13;;;;;;;17.46;81.76;101851.34;4859762;29;20049;-78
2022/05/26 11:28:14;;;;;;;5.85;1.42;;;;;;;17.52;81.67;101848.66;4848456;29;20049;-78
2022/05/26 11:36:50;;;;;;;4.03;1.55;;;;;;;17.41;83.72;101853.22;4865140;29;20060;-79
2022/05/26 11:39:33;;;;;;;2.97;1.35;;;;;;;17.48;84.76;101859.34;4835170;29;20518;-78
2022/05/26 11:42:12;;;;;;;3.22;1.33;;;;;;;17.65;84.45;101852.06;4852313;29;20233;-78
2022/05/26 11:44:47;;;;;;;3.10;1.10;;;;;;;17.88;84.70;101843.88;4850614;29;20053;-80
2022/05/26 11:47:31;;;;;;;2.78;1.25;;;;;;;17.99;84.34;101851.72;4855251;29;20315;-77
2022/05/26 11:50:20;;;;;;;6.35;1.63;;;;;;;17.86;83.03;101844.78;4848089;29;20519;-78
2022/05/26 11:52:51;;;;;;;4.97;1.58;;;;;;;17.66;83.36;101858.31;4847241;29;20052;-78
2022/05/26 11:55:38;;;;;;;2.40;0.95;;;;;;;17.53;84.14;101853.06;4872088;29;20527;-78
2022/05/26 11:58:38;;;;;;;5.40;1.10;;;;;;;17.31;84.03;101857.72;4845167;29;20320;-78
2022/05/26 12:01:32;;;;;;;7.18;1.45;;;;;;;17.16;83.69;101844.53;4856146;29;20180;-78
2022/05/26 12:04:14;;;;;;;2.78;0.98;;;;;;;17.02;85.02;101847.31;4855095;29;20271;-79
2022/05/26 12:07:01;;;;;;;3.10;1.10;;;;;;;17.02;85.06;101849.97;4857214;29;20060;-77
2022/05/26 12:09:54;;;;;;;4.15;1.10;;;;;;;17.09;85.55;101848.16;4853173;29;20136;-78
2022/05/26 12:12:22;;;;;;;6.47;1.15;;;;;;;17.25;85.38;101846.25;4856767;29;20053;-78
2022/05/26 12:14:52;;;;;;;2.63;1.20;;;;;;;17.38;84.83;101839.91;4848811;29;20048;-77
2022/05/26 12:17:45;;;;;;;2.33;1.40;;;;;;;17.75;83.73;101826.22;4854480;29;20044;-77
2022/05/26 12:20:14;;;;;;;8.05;1.52;;;;;;;18.11;83.72;101840.94;4872622;29;20793;-78
2022/05/26 12:22:54;;;;;;;3.33;0.95;;;;;;;18.17;80.13;101842.63;4856708;29;20057;-78
2022/05/26 12:25:30;;;;;;;2.42;1.20;;;;;;;18.03;81.45;101841.91;4872330;29;20037;-78
2022/05/26 12:28:11;;;;;;;2.38;1.10;;;;;;;17.86;82.05;101842.09;4853018;29;20207;-78
2022/05/26 12:30:46;;;;;;;4.72;1.75;;;;;;;17.80;83.43;101848.34;4852697;29;20044;-78
2022/05/26 12:33:18;;;;;;;4.88;1.60;;;;;;;17.71;81.90;101843.13;4852076;29;20419;-77